Time;durP1;ratioP1;P1;durP2;ratioP2;P2;SDS_P1;SDS_P2;PMS_P1;PMS_P2;Temp;Humidity;BMP_temperature;BMP_pressure;BME280_temperature;BME280_humidity;BME280_pressure;Samples;Min_cycle;Max_cycle;Signal;HPM_P1;HPM_P2
2020/12/19 00:01:48;;;;;;;21.13;15.73;;;;;;;;;;5093992;28;20224;-64
2020/12/19 00:04:15;;;;;;;21.88;15.90;;;;;;;;;;5094079;28;20197;-64
2020/12/19 00:06:44;;;;;;;23.67;15.63;;;;;;;;;;5093710;28;20639;-64
2020/12/19 00:09:11;;;;;;;22.50;16.20;;;;;;;;;;5093669;28;20228;-64
2020/12/19 00:11:37;;;;;;;18.35;14.65;;;;;;;;;;5093780;28;20220;-64
2020/12/19 00:14:04;;;;;;;19.08;14.77;;;;;;;;;;5094006;28;20204;-64
2020/12/19 00:16:31;;;;;;;19.25;14.88;;;;;;;;;;5094014;28;20211;-63
2020/12/19 00:18:58;;;;;;;23.92;15.98;;;;;;;;;;5093733;28;20196;-64
2020/12/19 00:21:32;;;;;;;19.35;15.10;;;;;;;;;;5093717;28;20224;-63
2020/12/19 00:23:59;;;;;;;22.42;16.63;;;;;;;;;;5097028;28;20207;-64
2020/12/19 00:26:31;;;;;;;18.35;14.68;;;;;;;;;;5097499;28;20219;-64
2020/12/19 00:28:58;;;;;;;22.85;16.05;;;;;;;;;;5097634;28;20209;-65
2020/12/19 00:31:24;;;;;;;20.70;14.07;;;;;;;;;;5097518;28;20227;-64
2020/12/19 00:33:51;;;;;;;19.05;15.40;;;;;;;;;;5099806;28;20230;-65
2020/12/19 00:36:19;;;;;;;22.00;15.15;;;;;;;;;;5110186;28;20204;-64
2020/12/19 00:38:45;;;;;;;18.65;14.77;;;;;;;;;;5097969;28;20207;-64
2020/12/19 00:41:17;;;;;;;18.13;15.93;;;;;;;;;;5098356;28;20653;-63
2020/12/19 00:43:43;;;;;;;22.33;16.05;;;;;;;;;;5098149;28;20644;-64
2020/12/19 00:46:11;;;;;;;20.25;15.05;;;;;;;;;;5098716;28;20573;-64
2020/12/19 00:48:38;;;;;;;17.70;14.02;;;;;;;;;;5098736;28;20222;-64
2020/12/19 00:51:04;;;;;;;20.58;15.90;;;;;;;;;;5098152;28;20227;-64
2020/12/19 00:53:32;;;;;;;17.60;15.10;;;;;;;;;;5098156;28;20200;-65
2020/12/19 00:55:59;;;;;;;23.77;16.02;;;;;;;;;;5097355;28;20196;-65
2020/12/19 00:58:25;;;;;;;22.25;16.15;;;;;;;;;;5098189;28;20196;-64
2020/12/19 01:00:52;;;;;;;22.40;15.70;;;;;;;;;;5097427;28;20638;-64
2020/12/19 01:03:19;;;;;;;21.38;15.55;;;;;;;;;;5097131;28;20201;-64
2020/12/19 01:05:46;;;;;;;22.52;15.40;;;;;;;;;;5096775;28;20239;-64
2020/12/19 01:08:12;;;;;;;20.90;15.88;;;;;;;;;;5097062;28;20703;-64
2020/12/19 01:10:40;;;;;;;19.75;14.85;;;;;;;;;;5097007;28;20274;-64
2020/12/19 01:13:07;;;;;;;21.60;15.00;;;;;;;;;;5096623;28;20207;-65
2020/12/19 01:15:33;;;;;;;19.55;15.25;;;;;;;;;;5096845;28;20253;-64
2020/12/19 01:18:00;;;;;;;19.20;14.02;;;;;;;;;;5096889;28;20196;-64
2020/12/19 01:20:27;;;;;;;18.98;14.63;;;;;;;;;;5096416;28;20623;-64
2020/12/19 01:22:54;;;;;;;19.25;13.95;;;;;;;;;;5096548;28;20205;-64
2020/12/19 01:25:20;;;;;;;19.00;14.48;;;;;;;;;;5096473;28;20690;-64
2020/12/19 01:27:48;;;;;;;20.70;14.98;;;;;;;;;;5096393;28;20273;-63
2020/12/19 01:30:15;;;;;;;20.02;15.55;;;;;;;;;;5096156;28;20637;-64
2020/12/19 01:32:41;;;;;;;23.30;15.73;;;;;;;;;;5096437;28;20687;-64
2020/12/19 01:35:08;;;;;;;20.52;16.70;;;;;;;;;;5095594;28;20208;-63
2020/12/19 01:37:35;;;;;;;21.20;15.20;;;;;;;;;;5096345;28;20200;-63
2020/12/19 01:40:02;;;;;;;20.17;16.80;;;;;;;;;;5098284;28;20227;-64
2020/12/19 01:42:28;;;;;;;22.65;16.30;;;;;;;;;;5097369;28;20212;-64
2020/12/19 01:44:56;;;;;;;20.48;14.65;;;;;;;;;;5097273;28;20235;-65
2020/12/19 01:47:23;;;;;;;18.20;14.50;;;;;;;;;;5096853;28;20204;-64
2020/12/19 01:49:50;;;;;;;19.75;14.10;;;;;;;;;;5096561;28;20257;-64
2020/12/19 01:52:19;;;;;;;20.20;14.57;;;;;;;;;;5096353;28;20543;-64
2020/12/19 01:54:46;;;;;;;17.85;14.43;;;;;;;;;;5096362;28;20665;-64
2020/12/19 01:57:14;;;;;;;17.60;13.68;;;;;;;;;;5096077;28;20204;-64
2020/12/19 01:59:41;;;;;;;18.48;14.57;;;;;;;;;;5096626;28;20231;-64
2020/12/19 02:02:09;;;;;;;19.90;14.85;;;;;;;;;;5097641;28;20277;-63
2020/12/19 02:04:36;;;;;;;20.65;14.82;;;;;;;;;;5097106;28;20671;-63
2020/12/19 02:07:04;;;;;;;17.88;14.57;;;;;;;;;;5096177;28;20208;-63
2020/12/19 02:09:31;;;;;;;18.17;14.90;;;;;;;;;;5096024;28;20231;-65
2020/12/19 02:11:58;;;;;;;19.13;14.98;;;;;;;;;;5096206;28;20232;-64
2020/12/19 02:14:25;;;;;;;18.80;14.68;;;;;;;;;;5095912;28;20204;-64
2020/12/19 02:16:56;;;;;;;16.85;12.48;;;;;;;;;;5095540;28;20667;-64
2020/12/19 02:19:23;;;;;;;17.15;13.43;;;;;;;;;;5095768;28;20197;-64
2020/12/19 02:21:50;;;;;;;19.13;13.63;;;;;;;;;;5095288;28;20711;-64
2020/12/19 02:24:18;;;;;;;20.48;14.43;;;;;;;;;;5096327;28;20291;-65
2020/12/19 02:26:48;;;;;;;19.55;14.23;;;;;;;;;;5103604;28;20205;-64
2020/12/19 02:29:14;;;;;;;21.15;15.52;;;;;;;;;;5096155;28;20308;-65
2020/12/19 02:31:41;;;;;;;20.58;15.50;;;;;;;;;;5095676;28;20247;-65
2020/12/19 02:34:08;;;;;;;20.65;14.75;;;;;;;;;;5096982;28;20204;-63
2020/12/19 02:36:35;;;;;;;20.38;14.40;;;;;;;;;;5096178;28;20230;-64
2020/12/19 02:39:02;;;;;;;21.63;17.70;;;;;;;;;;5095367;28;20192;-64
2020/12/19 02:41:29;;;;;;;19.52;13.50;;;;;;;;;;5095423;28;20585;-64
2020/12/19 02:43:57;;;;;;;17.13;14.00;;;;;;;;;;5095175;28;20197;-65
2020/12/19 02:46:24;;;;;;;20.70;15.18;;;;;;;;;;5093900;28;20204;-64
2020/12/19 02:48:51;;;;;;;19.10;14.10;;;;;;;;;;5095073;28;20220;-63
2020/12/19 02:51:18;;;;;;;20.50;14.90;;;;;;;;;;5094945;28;20220;-64
2020/12/19 02:53:45;;;;;;;20.33;14.90;;;;;;;;;;5095732;28;20636;-64
2020/12/19 02:56:12;;;;;;;19.83;14.35;;;;;;;;;;5095395;28;20204;-63
2020/12/19 02:58:39;;;;;;;19.77;14.20;;;;;;;;;;5095259;28;20562;-64
2020/12/19 03:01:06;;;;;;;19.60;14.70;;;;;;;;;;5096001;28;20223;-64
2020/12/19 03:03:33;;;;;;;18.80;13.95;;;;;;;;;;5094847;28;20200;-64
2020/12/19 03:06:00;;;;;;;17.67;14.38;;;;;;;;;;5094702;28;20691;-64
2020/12/19 03:08:27;;;;;;;18.77;13.80;;;;;;;;;;5094609;28;20310;-64
2020/12/19 03:10:53;;;;;;;20.02;14.35;;;;;;;;;;5095617;28;20236;-64
2020/12/19 03:13:20;;;;;;;18.40;14.07;;;;;;;;;;5099995;28;20196;-65
2020/12/19 03:15:48;;;;;;;17.98;13.80;;;;;;;;;;5099976;28;20248;-65
2020/12/19 03:18:14;;;;;;;18.33;13.95;;;;;;;;;;5097809;28;20196;-64
2020/12/19 03:20:41;;;;;;;16.75;13.45;;;;;;;;;;5100746;28;20220;-62
2020/12/19 03:23:08;;;;;;;19.20;13.70;;;;;;;;;;5097958;28;20200;-64
2020/12/19 03:25:35;;;;;;;20.02;14.27;;;;;;;;;;5099772;28;20196;-64
2020/12/19 03:28:01;;;;;;;21.77;15.77;;;;;;;;;;5103389;28;20631;-64
2020/12/19 03:30:28;;;;;;;19.25;15.05;;;;;;;;;;5102290;28;20221;-64
2020/12/19 03:32:56;;;;;;;22.13;15.88;;;;;;;;;;5099854;28;20205;-64
2020/12/19 03:35:24;;;;;;;18.15;14.75;;;;;;;;;;5094096;28;20204;-64
2020/12/19 03:37:52;;;;;;;20.52;14.95;;;;;;;;;;5094524;28;20229;-64
2020/12/19 03:40:19;;;;;;;20.27;15.15;;;;;;;;;;5094475;28;20592;-63
2020/12/19 03:42:45;;;;;;;18.60;15.00;;;;;;;;;;5094089;28;20598;-64
2020/12/19 03:45:12;;;;;;;21.95;15.48;;;;;;;;;;5093956;28;20264;-64
2020/12/19 03:47:39;;;;;;;20.63;16.42;;;;;;;;;;5094095;28;20253;-64
2020/12/19 03:50:07;;;;;;;23.58;16.67;;;;;;;;;;5094082;28;20220;-64
2020/12/19 03:52:34;;;;;;;20.70;15.95;;;;;;;;;;5094224;28;20199;-64
2020/12/19 03:55:01;;;;;;;22.65;16.52;;;;;;;;;;5094123;28;20196;-63
2020/12/19 03:57:27;;;;;;;20.48;15.85;;;;;;;;;;5093678;28;20254;-64
2020/12/19 03:59:54;;;;;;;22.85;16.70;;;;;;;;;;5094062;28;20201;-63
2020/12/19 04:02:21;;;;;;;19.23;15.40;;;;;;;;;;5093863;28;20200;-64
2020/12/19 04:07:29;;;;;;;20.17;16.05;;;;;;;;;;5112754;27;20616;-64
2020/12/19 04:09:55;;;;;;;20.00;15.65;;;;;;;;;;5112069;28;20196;-64
2020/12/19 04:12:22;;;;;;;20.02;16.02;;;;;;;;;;5122756;28;20629;-64
2020/12/19 04:14:49;;;;;;;22.20;17.33;;;;;;;;;;5112456;28;20596;-63
2020/12/19 04:17:16;;;;;;;20.60;16.08;;;;;;;;;;5111121;28;20207;-64
2020/12/19 04:19:43;;;;;;;23.50;17.27;;;;;;;;;;5111214;28;20210;-65
2020/12/19 04:22:10;;;;;;;25.40;18.10;;;;;;;;;;5111021;28;20570;-64
2020/12/19 04:24:38;;;;;;;22.17;17.35;;;;;;;;;;5111186;28;20202;-64
2020/12/19 04:27:05;;;;;;;20.40;16.90;;;;;;;;;;5111076;28;20226;-64
2020/12/19 04:29:32;;;;;;;25.50;18.23;;;;;;;;;;5110914;28;20207;-63
2020/12/19 04:31:59;;;;;;;26.67;19.33;;;;;;;;;;5120233;28;20231;-64
2020/12/19 04:34:26;;;;;;;24.27;17.48;;;;;;;;;;5125327;28;20204;-63
2020/12/19 04:36:53;;;;;;;23.92;18.02;;;;;;;;;;5123354;28;20203;-64
2020/12/19 04:39:20;;;;;;;24.25;20.67;;;;;;;;;;5123652;28;20200;-65
2020/12/19 04:41:48;;;;;;;24.60;18.13;;;;;;;;;;5124526;28;20220;-64
2020/12/19 04:44:16;;;;;;;21.00;17.52;;;;;;;;;;5126193;28;20210;-64
2020/12/19 04:46:43;;;;;;;22.27;16.98;;;;;;;;;;5111053;28;20695;-63
2020/12/19 04:49:10;;;;;;;24.15;18.38;;;;;;;;;;5111353;28;20196;-63
2020/12/19 04:51:37;;;;;;;22.88;17.75;;;;;;;;;;5112115;28;20230;-63
2020/12/19 04:54:05;;;;;;;21.27;15.77;;;;;;;;;;5115276;28;20204;-64
2020/12/19 04:56:32;;;;;;;24.50;18.17;;;;;;;;;;5114596;28;20192;-64
2020/12/19 04:59:01;;;;;;;22.88;17.08;;;;;;;;;;5111652;28;20200;-64
2020/12/19 05:01:28;;;;;;;23.55;17.15;;;;;;;;;;5113351;28;20224;-63
2020/12/19 05:03:56;;;;;;;21.10;16.75;;;;;;;;;;5112831;28;20196;-62
2020/12/19 05:06:23;;;;;;;23.95;18.02;;;;;;;;;;5111363;28;20768;-64
2020/12/19 05:08:50;;;;;;;22.20;16.67;;;;;;;;;;5110780;28;20220;-63
2020/12/19 05:11:17;;;;;;;23.15;16.92;;;;;;;;;;5110943;28;20232;-62
2020/12/19 05:13:45;;;;;;;25.27;16.55;;;;;;;;;;5110499;28;20200;-63
2020/12/19 05:16:13;;;;;;;23.25;16.90;;;;;;;;;;5110667;28;20207;-64
2020/12/19 05:18:41;;;;;;;23.90;17.17;;;;;;;;;;5097780;28;20204;-64
2020/12/19 05:21:09;;;;;;;23.92;18.60;;;;;;;;;;5096318;28;20256;-63
2020/12/19 05:23:36;;;;;;;23.92;16.38;;;;;;;;;;5096720;28;20196;-64
2020/12/19 05:26:03;;;;;;;29.52;19.33;;;;;;;;;;5096958;28;20579;-63
2020/12/19 05:28:30;;;;;;;25.45;18.40;;;;;;;;;;5096874;28;20270;-63
2020/12/19 05:30:59;;;;;;;22.58;16.77;;;;;;;;;;5096278;28;20232;-62
2020/12/19 05:33:30;;;;;;;27.05;18.45;;;;;;;;;;5096470;28;20211;-64
2020/12/19 05:35:57;;;;;;;29.90;17.83;;;;;;;;;;5096947;28;20185;-63
2020/12/19 05:38:27;;;;;;;27.65;18.77;;;;;;;;;;5097393;28;20668;-63
2020/12/19 05:40:54;;;;;;;29.38;18.55;;;;;;;;;;5100129;28;20220;-63
2020/12/19 05:43:20;;;;;;;26.15;17.95;;;;;;;;;;5099085;28;20230;-63
2020/12/19 05:45:47;;;;;;;27.95;18.98;;;;;;;;;;5096558;28;20222;-63
2020/12/19 05:48:14;;;;;;;25.73;18.95;;;;;;;;;;5098108;28;20204;-64
2020/12/19 05:50:42;;;;;;;27.50;19.65;;;;;;;;;;5099263;28;20220;-64
2020/12/19 05:53:08;;;;;;;27.63;19.15;;;;;;;;;;5096766;28;20574;-63
2020/12/19 05:55:36;;;;;;;28.08;19.48;;;;;;;;;;5097667;28;20595;-64
2020/12/19 05:58:05;;;;;;;25.98;18.23;;;;;;;;;;5096629;28;20235;-64
2020/12/19 06:00:32;;;;;;;24.52;17.10;;;;;;;;;;5095719;28;20221;-64
2020/12/19 06:03:02;;;;;;;29.23;19.45;;;;;;;;;;5095933;28;20200;-62
2020/12/19 06:05:30;;;;;;;27.33;18.20;;;;;;;;;;5102239;28;20257;-62
2020/12/19 06:07:58;;;;;;;32.25;20.40;;;;;;;;;;5100488;28;20624;-64
2020/12/19 06:10:25;;;;;;;27.10;18.90;;;;;;;;;;5095636;28;20227;-63
2020/12/19 06:12:53;;;;;;;29.17;19.85;;;;;;;;;;5095529;28;20200;-63
2020/12/19 06:15:36;;;;;;;34.95;23.65;;;;;;;;;;5094856;28;20205;-63
2020/12/19 06:18:06;;;;;;;31.23;20.80;;;;;;;;;;5095410;28;20180;-63
2020/12/19 06:20:33;;;;;;;32.55;21.45;;;;;;;;;;5095035;28;20222;-62
2020/12/19 06:23:00;;;;;;;31.85;22.65;;;;;;;;;;5095313;28;20203;-63
2020/12/19 06:25:43;;;;;;;34.38;22.55;;;;;;;;;;5095327;28;20208;-64
2020/12/19 06:28:10;;;;;;;29.27;21.30;;;;;;;;;;5095346;28;20207;-63
2020/12/19 06:30:37;;;;;;;29.15;21.20;;;;;;;;;;5094389;28;20220;-62
2020/12/19 06:33:11;;;;;;;28.30;19.73;;;;;;;;;;5094838;28;20668;-62
2020/12/19 06:35:39;;;;;;;29.45;21.13;;;;;;;;;;5095082;28;20192;-63
2020/12/19 06:38:06;;;;;;;34.30;21.42;;;;;;;;;;5095016;28;20203;-63
2020/12/19 06:40:39;;;;;;;31.98;21.30;;;;;;;;;;5095277;28;20223;-64
2020/12/19 06:43:10;;;;;;;31.30;21.10;;;;;;;;;;5095241;28;20713;-63
2020/12/19 06:45:37;;;;;;;30.85;21.30;;;;;;;;;;5095225;28;20201;-62
2020/12/19 06:48:03;;;;;;;34.60;22.00;;;;;;;;;;5094858;28;20230;-62
2020/12/19 06:50:45;;;;;;;34.90;21.10;;;;;;;;;;5095102;28;20220;-64
2020/12/19 06:53:15;;;;;;;35.88;22.10;;;;;;;;;;5094637;28;20200;-63
2020/12/19 06:55:42;;;;;;;29.27;20.48;;;;;;;;;;5094657;28;20188;-63
2020/12/19 06:58:09;;;;;;;29.65;20.60;;;;;;;;;;5094288;28;20200;-63
2020/12/19 07:00:37;;;;;;;31.88;23.10;;;;;;;;;;5094613;28;20216;-63
2020/12/19 07:03:04;;;;;;;33.30;21.70;;;;;;;;;;5094189;28;20613;-63
2020/12/19 07:05:32;;;;;;;33.95;22.80;;;;;;;;;;5094418;28;20265;-64
2020/12/19 07:08:14;;;;;;;31.00;21.70;;;;;;;;;;5094458;28;20185;-63
2020/12/19 07:10:42;;;;;;;31.42;20.10;;;;;;;;;;5094461;28;20228;-62
2020/12/19 07:13:09;;;;;;;31.05;21.40;;;;;;;;;;5094472;28;20699;-64
2020/12/19 07:15:43;;;;;;;39.67;22.15;;;;;;;;;;5094724;28;20203;-64
2020/12/19 07:18:24;;;;;;;30.63;20.58;;;;;;;;;;5094110;28;20192;-63
2020/12/19 07:20:56;;;;;;;32.67;21.80;;;;;;;;;;5094093;28;20796;-63
2020/12/19 07:23:23;;;;;;;31.17;21.23;;;;;;;;;;5094273;28;20552;-63
2020/12/19 07:25:51;;;;;;;32.92;21.30;;;;;;;;;;5094184;28;20227;-64
2020/12/19 07:28:18;;;;;;;31.67;21.50;;;;;;;;;;5094373;28;20197;-64
2020/12/19 07:30:45;;;;;;;31.05;22.48;;;;;;;;;;5093871;28;20724;-64
2020/12/19 07:33:12;;;;;;;29.70;21.08;;;;;;;;;;5093999;28;20200;-63
2020/12/19 07:35:39;;;;;;;28.52;19.38;;;;;;;;;;5094175;28;20207;-62
2020/12/19 07:38:06;;;;;;;29.17;20.02;;;;;;;;;;5093821;28;20204;-63
2020/12/19 07:40:33;;;;;;;24.60;17.75;;;;;;;;;;5093515;28;20224;-63
2020/12/19 07:43:01;;;;;;;26.55;18.90;;;;;;;;;;5093776;28;20208;-64
2020/12/19 07:45:28;;;;;;;25.00;18.35;;;;;;;;;;5093476;28;20740;-64
2020/12/19 07:47:55;;;;;;;27.08;19.25;;;;;;;;;;5093804;28;20207;-63
2020/12/19 07:50:26;;;;;;;24.60;18.83;;;;;;;;;;5100537;28;20315;-64
2020/12/19 07:53:02;;;;;;;24.83;18.60;;;;;;;;;;5100347;28;20196;-63
2020/12/19 07:55:29;;;;;;;23.40;18.10;;;;;;;;;;5104012;28;20247;-64
2020/12/19 07:57:56;;;;;;;27.55;19.23;;;;;;;;;;5103579;28;20207;-64
2020/12/19 08:00:24;;;;;;;28.58;18.75;;;;;;;;;;5103146;28;20223;-63
2020/12/19 08:02:51;;;;;;;26.70;18.05;;;;;;;;;;5102930;28;20266;-64
2020/12/19 08:05:18;;;;;;;25.73;18.08;;;;;;;;;;5103322;28;20211;-64
2020/12/19 08:07:45;;;;;;;23.80;18.08;;;;;;;;;;5103551;28;20208;-64
2020/12/19 08:10:12;;;;;;;25.00;17.75;;;;;;;;;;5102803;28;20228;-64
2020/12/19 08:12:40;;;;;;;22.55;17.45;;;;;;;;;;5101436;28;20222;-63
2020/12/19 08:15:07;;;;;;;23.55;17.95;;;;;;;;;;5100758;28;20249;-63
2020/12/19 08:17:37;;;;;;;25.08;18.63;;;;;;;;;;5102935;28;20689;-64
2020/12/19 08:20:04;;;;;;;25.05;18.88;;;;;;;;;;5101404;28;20216;-64
2020/12/19 08:22:32;;;;;;;24.48;18.73;;;;;;;;;;5101994;28;20257;-64
2020/12/19 08:24:59;;;;;;;24.15;18.23;;;;;;;;;;5101608;28;20201;-64
2020/12/19 08:27:30;;;;;;;24.27;18.23;;;;;;;;;;5101993;28;20227;-64
2020/12/19 08:30:07;;;;;;;26.17;17.98;;;;;;;;;;5100431;28;20196;-64
2020/12/19 08:32:35;;;;;;;26.27;17.50;;;;;;;;;;5101007;28;20207;-64
2020/12/19 08:35:02;;;;;;;26.25;18.92;;;;;;;;;;5098449;28;20204;-64
2020/12/19 08:37:28;;;;;;;25.05;17.15;;;;;;;;;;5096749;28;20672;-64
2020/12/19 08:40:09;;;;;;;22.88;17.80;;;;;;;;;;5094151;28;20686;-62
2020/12/19 08:42:36;;;;;;;21.48;17.90;;;;;;;;;;5094910;28;20324;-64
2020/12/19 08:45:16;;;;;;;21.08;17.20;;;;;;;;;;5093658;28;20690;-65
2020/12/19 08:47:44;;;;;;;20.30;16.77;;;;;;;;;;5094229;28;20312;-63
2020/12/19 08:50:12;;;;;;;23.30;17.67;;;;;;;;;;5093344;28;20916;-64
2020/12/19 08:52:39;;;;;;;21.23;16.55;;;;;;;;;;5094376;28;20691;-65
2020/12/19 08:55:06;;;;;;;25.25;16.60;;;;;;;;;;5097342;28;20204;-63
2020/12/19 08:57:33;;;;;;;22.90;16.60;;;;;;;;;;5099055;28;20491;-63
2020/12/19 09:00:10;;;;;;;19.52;15.68;;;;;;;;;;5097422;28;20597;-64
2020/12/19 09:02:38;;;;;;;21.60;15.52;;;;;;;;;;5097521;28;20196;-64
2020/12/19 09:05:06;;;;;;;17.70;14.65;;;;;;;;;;5096959;28;20254;-63
2020/12/19 09:07:32;;;;;;;21.67;15.00;;;;;;;;;;5097055;28;20518;-64
2020/12/19 09:09:59;;;;;;;20.17;16.00;;;;;;;;;;5096602;28;20200;-65
2020/12/19 09:12:26;;;;;;;23.42;15.82;;;;;;;;;;5096539;28;20200;-64
2020/12/19 09:14:53;;;;;;;23.40;16.30;;;;;;;;;;5096646;28;20212;-64
2020/12/19 09:17:29;;;;;;;18.25;14.85;;;;;;;;;;5097821;28;20200;-63
2020/12/19 09:20:05;;;;;;;18.50;14.30;;;;;;;;;;5098575;28;20203;-63
2020/12/19 09:22:33;;;;;;;23.13;15.38;;;;;;;;;;5098336;28;20203;-63
2020/12/19 09:25:00;;;;;;;17.92;14.75;;;;;;;;;;5098338;28;20246;-64
2020/12/19 09:27:27;;;;;;;20.42;14.60;;;;;;;;;;5096804;28;20238;-62
2020/12/19 09:29:53;;;;;;;20.98;15.70;;;;;;;;;;5100043;28;20211;-63
2020/12/19 09:32:20;;;;;;;16.08;13.20;;;;;;;;;;5108006;28;20574;-63
2020/12/19 09:34:47;;;;;;;19.38;13.85;;;;;;;;;;5097035;28;20287;-63
2020/12/19 09:37:14;;;;;;;20.65;14.05;;;;;;;;;;5096420;28;20196;-64
2020/12/19 09:39:41;;;;;;;19.67;14.77;;;;;;;;;;5096603;28;20226;-61
2020/12/19 09:42:08;;;;;;;17.38;14.18;;;;;;;;;;5096532;28;20215;-65
2020/12/19 09:44:35;;;;;;;18.40;13.75;;;;;;;;;;5096410;28;20291;-63
2020/12/19 09:47:01;;;;;;;14.52;12.90;;;;;;;;;;5096115;28;20223;-62
2020/12/19 09:49:28;;;;;;;17.50;13.70;;;;;;;;;;5096099;28;20208;-63
2020/12/19 09:51:55;;;;;;;15.73;13.07;;;;;;;;;;5096081;28;20281;-63
2020/12/19 09:54:22;;;;;;;16.40;11.82;;;;;;;;;;5096256;28;20216;-63
2020/12/19 09:56:49;;;;;;;17.00;13.40;;;;;;;;;;5095653;28;20683;-64
2020/12/19 09:59:18;;;;;;;15.80;13.27;;;;;;;;;;5095557;28;20261;-63
2020/12/19 10:01:45;;;;;;;17.65;13.35;;;;;;;;;;5095450;28;20220;-64
2020/12/19 10:04:11;;;;;;;20.30;13.93;;;;;;;;;;5095317;28;20215;-64
2020/12/19 10:06:38;;;;;;;15.80;12.80;;;;;;;;;;5095530;28;20216;-63
2020/12/19 10:09:05;;;;;;;14.75;12.57;;;;;;;;;;5096703;28;20204;-64
2020/12/19 10:11:31;;;;;;;14.50;12.55;;;;;;;;;;5095700;28;20228;-64
2020/12/19 10:13:59;;;;;;;14.63;12.18;;;;;;;;;;5096221;28;20196;-63
2020/12/19 10:16:26;;;;;;;13.15;11.35;;;;;;;;;;5096347;28;20196;-64
2020/12/19 10:18:52;;;;;;;16.98;12.43;;;;;;;;;;5096594;28;20200;-64
2020/12/19 10:21:19;;;;;;;12.05;10.60;;;;;;;;;;5096659;28;20224;-64
2020/12/19 10:23:46;;;;;;;15.18;12.15;;;;;;;;;;5096384;28;20200;-63
2020/12/19 10:26:13;;;;;;;15.32;11.68;;;;;;;;;;5095667;28;20216;-64
2020/12/19 10:28:39;;;;;;;15.88;12.13;;;;;;;;;;5096258;28;20203;-64
2020/12/19 10:31:07;;;;;;;13.07;11.68;;;;;;;;;;5095507;28;20224;-62
2020/12/19 10:33:34;;;;;;;14.65;12.50;;;;;;;;;;5095531;28;20352;-64
2020/12/19 10:36:00;;;;;;;13.13;11.73;;;;;;;;;;5095306;28;20660;-64
2020/12/19 10:38:27;;;;;;;13.57;11.13;;;;;;;;;;5095225;28;20199;-63
2020/12/19 10:40:54;;;;;;;14.93;11.23;;;;;;;;;;5094970;28;20631;-62
2020/12/19 10:43:21;;;;;;;15.80;11.35;;;;;;;;;;5095757;28;20204;-64
2020/12/19 10:45:47;;;;;;;12.80;10.82;;;;;;;;;;5095026;28;20203;-63
2020/12/19 10:48:15;;;;;;;13.15;10.60;;;;;;;;;;5095279;28;20204;-63
2020/12/19 10:50:42;;;;;;;13.02;10.95;;;;;;;;;;5095350;28;20224;-63
2020/12/19 10:53:08;;;;;;;12.50;10.25;;;;;;;;;;5096334;28;20207;-63
2020/12/19 10:55:37;;;;;;;11.82;9.38;;;;;;;;;;5096105;28;20205;-64
2020/12/19 10:58:04;;;;;;;11.60;9.57;;;;;;;;;;5095332;28;20227;-63
2020/12/19 11:00:31;;;;;;;12.60;10.43;;;;;;;;;;5095621;28;20220;-65
2020/12/19 11:02:57;;;;;;;10.65;9.40;;;;;;;;;;5095820;28;20212;-64
2020/12/19 11:05:25;;;;;;;11.57;10.38;;;;;;;;;;5094882;28;20671;-63
2020/12/19 11:07:52;;;;;;;12.43;10.80;;;;;;;;;;5095694;28;20224;-63
2020/12/19 11:10:18;;;;;;;13.05;10.68;;;;;;;;;;5095305;28;20228;-63
2020/12/19 11:12:45;;;;;;;16.42;10.60;;;;;;;;;;5095770;28;20258;-63
2020/12/19 11:15:12;;;;;;;11.45;10.23;;;;;;;;;;5095259;28;20208;-63
2020/12/19 11:17:39;;;;;;;11.00;9.90;;;;;;;;;;5095343;28;20196;-64
2020/12/19 11:20:05;;;;;;;14.85;10.38;;;;;;;;;;5095212;28;20220;-64
2020/12/19 11:22:33;;;;;;;13.02;9.95;;;;;;;;;;5107265;28;20208;-64
2020/12/19 11:25:00;;;;;;;10.40;9.00;;;;;;;;;;5101014;28;20587;-63
2020/12/19 11:27:26;;;;;;;10.98;9.23;;;;;;;;;;5095178;28;20224;-62
2020/12/19 11:29:53;;;;;;;12.68;8.95;;;;;;;;;;5095556;28;20206;-62
2020/12/19 11:32:20;;;;;;;16.08;9.40;;;;;;;;;;5094672;28;20209;-63
2020/12/19 11:34:47;;;;;;;10.60;9.38;;;;;;;;;;5094590;28;20208;-63
2020/12/19 11:37:15;;;;;;;10.20;8.75;;;;;;;;;;5093866;28;20199;-63
2020/12/19 11:39:43;;;;;;;10.23;9.15;;;;;;;;;;5093773;28;20700;-62
2020/12/19 11:42:10;;;;;;;11.05;9.32;;;;;;;;;;5094707;28;20253;-64
2020/12/19 11:44:37;;;;;;;10.23;8.50;;;;;;;;;;5095224;28;20201;-63
2020/12/19 11:47:03;;;;;;;10.57;8.35;;;;;;;;;;5094774;28;20220;-63
2020/12/19 11:49:30;;;;;;;11.23;9.30;;;;;;;;;;5094770;28;20200;-65
2020/12/19 11:52:00;;;;;;;10.85;8.93;;;;;;;;;;5094226;28;20629;-64
2020/12/19 11:54:27;;;;;;;10.35;9.23;;;;;;;;;;5094378;28;20671;-63
2020/12/19 11:56:54;;;;;;;12.43;9.68;;;;;;;;;;5094534;28;20203;-65
2020/12/19 11:59:21;;;;;;;10.18;8.85;;;;;;;;;;5094185;28;20640;-62
2020/12/19 12:01:48;;;;;;;10.40;9.07;;;;;;;;;;5093838;28;20243;-61
2020/12/19 12:04:15;;;;;;;10.63;9.53;;;;;;;;;;5094719;28;20254;-62
2020/12/19 12:06:41;;;;;;;11.32;9.07;;;;;;;;;;5099119;28;20484;-63
2020/12/19 12:09:08;;;;;;;10.15;8.90;;;;;;;;;;5103399;28;20207;-63
2020/12/19 12:11:35;;;;;;;9.70;8.68;;;;;;;;;;5104244;28;20224;-64
2020/12/19 12:14:02;;;;;;;9.73;8.70;;;;;;;;;;5108149;28;20208;-64
2020/12/19 12:16:29;;;;;;;9.80;8.80;;;;;;;;;;5103749;28;20435;-63
2020/12/19 12:18:57;;;;;;;10.57;9.48;;;;;;;;;;5103361;28;20200;-67
2020/12/19 12:21:26;;;;;;;10.20;8.35;;;;;;;;;;5101540;28;20696;-63
2020/12/19 12:23:52;;;;;;;10.68;8.93;;;;;;;;;;5100973;28;20204;-62
2020/12/19 12:26:23;;;;;;;10.18;8.27;;;;;;;;;;5101542;28;20216;-63
2020/12/19 12:28:50;;;;;;;9.32;8.15;;;;;;;;;;5097495;28;20204;-62
2020/12/19 12:31:21;;;;;;;9.02;8.02;;;;;;;;;;5097147;28;20220;-62
2020/12/19 12:33:48;;;;;;;9.57;8.02;;;;;;;;;;5097342;28;20189;-64
2020/12/19 12:36:15;;;;;;;9.30;8.27;;;;;;;;;;5096929;28;20203;-62
2020/12/19 12:38:41;;;;;;;9.32;8.15;;;;;;;;;;5098671;28;20442;-62
2020/12/19 12:41:08;;;;;;;9.38;8.02;;;;;;;;;;5099384;28;20220;-62
2020/12/19 12:43:35;;;;;;;9.43;7.60;;;;;;;;;;5100183;28;20598;-63
2020/12/19 12:46:02;;;;;;;11.03;7.23;;;;;;;;;;5098860;28;20499;-62
2020/12/19 12:48:29;;;;;;;9.97;7.10;;;;;;;;;;5099912;28;20549;-62
2020/12/19 12:50:56;;;;;;;9.57;6.97;;;;;;;;;;5099504;28;20473;-62
2020/12/19 12:53:23;;;;;;;9.57;8.20;;;;;;;;;;5098572;28;20449;-64
2020/12/19 12:55:50;;;;;;;7.82;7.03;;;;;;;;;;5096966;28;20223;-63
2020/12/19 12:58:17;;;;;;;8.90;7.73;;;;;;;;;;5097037;28;20238;-63
2020/12/19 13:00:45;;;;;;;8.60;7.47;;;;;;;;;;5097077;28;20488;-63
2020/12/19 13:03:11;;;;;;;8.30;7.40;;;;;;;;;;5096688;28;20204;-62
2020/12/19 13:05:39;;;;;;;8.70;7.70;;;;;;;;;;5096684;28;20272;-63
2020/12/19 13:08:06;;;;;;;8.32;7.40;;;;;;;;;;5096861;28;20832;-63
2020/12/19 13:10:33;;;;;;;12.15;7.75;;;;;;;;;;5096329;28;20707;-64
2020/12/19 13:12:59;;;;;;;10.93;7.15;;;;;;;;;;5097138;28;20196;-63
2020/12/19 13:15:26;;;;;;;8.68;6.90;;;;;;;;;;5097116;28;20261;-62
2020/12/19 13:17:53;;;;;;;8.50;7.60;;;;;;;;;;5096870;28;20200;-62
2020/12/19 13:20:20;;;;;;;8.73;6.87;;;;;;;;;;5096231;28;20470;-63
2020/12/19 13:22:47;;;;;;;7.83;7.00;;;;;;;;;;5096699;28;20442;-63
2020/12/19 13:25:14;;;;;;;8.50;6.67;;;;;;;;;;5096963;28;20855;-63
2020/12/19 13:27:41;;;;;;;8.57;7.33;;;;;;;;;;5096978;28;20511;-63
2020/12/19 13:30:07;;;;;;;8.75;6.90;;;;;;;;;;5096463;28;20469;-63
2020/12/19 13:32:34;;;;;;;8.27;7.00;;;;;;;;;;5097561;28;20197;-62
2020/12/19 13:35:01;;;;;;;7.43;6.30;;;;;;;;;;5096749;28;20557;-62
2020/12/19 13:37:28;;;;;;;7.33;6.30;;;;;;;;;;5097896;28;20450;-62
2020/12/19 13:39:56;;;;;;;13.03;6.17;;;;;;;;;;5098626;28;20449;-63
2020/12/19 13:42:23;;;;;;;9.27;7.17;;;;;;;;;;5097798;28;20458;-62
2020/12/19 13:44:50;;;;;;;7.32;6.50;;;;;;;;;;5102761;28;20454;-63
2020/12/19 13:47:16;;;;;;;7.67;6.23;;;;;;;;;;5105216;28;20756;-62
2020/12/19 13:49:43;;;;;;;7.63;5.80;;;;;;;;;;5108388;28;20438;-63
2020/12/19 13:52:10;;;;;;;7.20;6.47;;;;;;;;;;5104694;28;20438;-63
2020/12/19 13:54:36;;;;;;;8.43;6.37;;;;;;;;;;5106222;28;20443;-62
2020/12/19 13:57:04;;;;;;;8.23;5.93;;;;;;;;;;5107356;28;20435;-63
2020/12/19 13:59:31;;;;;;;7.05;6.25;;;;;;;;;;5105398;28;20941;-63
2020/12/19 14:01:57;;;;;;;6.97;6.00;;;;;;;;;;5098542;28;20242;-63
2020/12/19 14:04:24;;;;;;;6.40;5.73;;;;;;;;;;5101922;28;20442;-62
2020/12/19 14:06:51;;;;;;;6.40;5.80;;;;;;;;;;5105958;28;20482;-62
2020/12/19 14:09:19;;;;;;;8.23;5.53;;;;;;;;;;5101922;28;20483;-63
2020/12/19 14:11:46;;;;;;;6.95;5.20;;;;;;;;;;5103008;28;20503;-62
2020/12/19 14:14:14;;;;;;;6.50;5.78;;;;;;;;;;5101193;28;20679;-63
2020/12/19 14:16:41;;;;;;;6.40;5.30;;;;;;;;;;5099008;28;20250;-64
2020/12/19 14:19:10;;;;;;;6.60;5.53;;;;;;;;;;5099225;28;20438;-63
2020/12/19 14:21:37;;;;;;;7.50;5.88;;;;;;;;;;5097993;28;20228;-62
2020/12/19 14:24:04;;;;;;;7.27;5.30;;;;;;;;;;5095390;28;20204;-62
2020/12/19 14:26:30;;;;;;;7.03;5.60;;;;;;;;;;5095570;28;20527;-64